sensor_id;sensor_type;location;lat;lon;timestamp;pressure;altitude;pressure_sealevel;temperature;humidity
48926;BME280;39838;59.938;30.642;2023-07-29T00:00:15;99422.22;;;12.31;87.49
48926;BME280;39838;59.938;30.642;2023-07-29T00:02:43;99420.56;;;12.28;87.28
48926;BME280;39838;59.938;30.642;2023-07-29T00:05:10;99425.81;;;12.27;87.35
48926;BME280;39838;59.938;30.642;2023-07-29T00:07:37;99425.81;;;12.27;87.56
48926;BME280;39838;59.938;30.642;2023-07-29T00:10:06;99426.78;;;12.23;87.46
48926;BME280;39838;59.938;30.642;2023-07-29T00:12:35;99424.25;;;12.20;87.76
48926;BME280;39838;59.938;30.642;2023-07-29T00:15:02;99427.78;;;12.17;87.99
48926;BME280;39838;59.938;30.642;2023-07-29T00:17:30;99433.09;;;12.13;88.28
48926;BME280;39838;59.938;30.642;2023-07-29T00:19:58;99424.47;;;12.11;88.48
48926;BME280;39838;59.938;30.642;2023-07-29T00:22:25;99428.03;;;12.07;88.55
48926;BME280;39838;59.938;30.642;2023-07-29T00:24:52;99434.09;;;12.07;88.98
48926;BME280;39838;59.938;30.642;2023-07-29T00:27:21;99427.19;;;12.06;89.24
48926;BME280;39838;59.938;30.642;2023-07-29T00:29:49;99431.50;;;12.06;89.29
48926;BME280;39838;59.938;30.642;2023-07-29T00:32:16;99438.50;;;12.03;89.68
48926;BME280;39838;59.938;30.642;2023-07-29T00:34:44;99436.00;;;12.00;89.34
48926;BME280;39838;59.938;30.642;2023-07-29T00:37:11;99441.19;;;12.00;89.79
48926;BME280;39838;59.938;30.642;2023-07-29T00:39:38;99439.50;;;11.99;90.18
48926;BME280;39838;59.938;30.642;2023-07-29T00:42:06;99445.63;;;11.95;89.89
48926;BME280;39838;59.938;30.642;2023-07-29T00:44:33;99444.78;;;11.95;90.38
48926;BME280;39838;59.938;30.642;2023-07-29T00:47:02;99450.84;;;11.95;90.22
48926;BME280;39838;59.938;30.642;2023-07-29T00:49:30;99460.41;;;11.95;90.21
48926;BME280;39838;59.938;30.642;2023-07-29T00:51:57;99463.91;;;11.94;90.35
48926;BME280;39838;59.938;30.642;2023-07-29T00:54:24;99460.44;;;11.93;90.53
48926;BME280;39838;59.938;30.642;2023-07-29T00:56:51;99451.78;;;11.91;90.46
48926;BME280;39838;59.938;30.642;2023-07-29T00:59:18;99457.84;;;11.92;90.45
48926;BME280;39838;59.938;30.642;2023-07-29T01:01:46;99452.69;;;11.90;90.89
48926;BME280;39838;59.938;30.642;2023-07-29T01:04:14;99459.69;;;11.88;90.90
48926;BME280;39838;59.938;30.642;2023-07-29T01:06:49;99458.81;;;11.88;90.79
48926;BME280;39838;59.938;30.642;2023-07-29T01:09:27;99474.47;;;11.86;90.99
48926;BME280;39838;59.938;30.642;2023-07-29T01:12:03;99471.06;;;11.83;91.20
48926;BME280;39838;59.938;30.642;2023-07-29T01:14:38;99475.44;;;11.82;91.31
48926;BME280;39838;59.938;30.642;2023-07-29T01:17:09;99475.44;;;11.82;91.46
48926;BME280;39838;59.938;30.642;2023-07-29T01:19:53;99467.72;;;11.76;91.68
48926;BME280;39838;59.938;30.642;2023-07-29T01:22:25;99475.47;;;11.79;91.82
48926;BME280;39838;59.938;30.642;2023-07-29T01:24:54;99481.53;;;11.80;92.01
48926;BME280;39838;59.938;30.642;2023-07-29T01:27:21;99474.63;;;11.79;92.24
48926;BME280;39838;59.938;30.642;2023-07-29T01:29:48;99483.28;;;11.77;92.45
48926;BME280;39838;59.938;30.642;2023-07-29T01:32:19;99471.22;;;11.75;92.44
48926;BME280;39838;59.938;30.642;2023-07-29T01:34:51;99472.09;;;11.74;92.50
48926;BME280;39838;59.938;30.642;2023-07-29T01:37:26;99475.59;;;11.71;92.27
48926;BME280;39838;59.938;30.642;2023-07-29T01:39:56;99455.94;;;11.58;92.81
48926;BME280;39838;59.938;30.642;2023-07-29T01:42:24;99480.03;;;11.68;93.27
48926;BME280;39838;59.938;30.642;2023-07-29T01:44:52;99480.94;;;11.67;93.22
48926;BME280;39838;59.938;30.642;2023-07-29T01:47:20;99468.97;;;11.57;93.31
48926;BME280;39838;59.938;30.642;2023-07-29T01:49:48;99482.72;;;11.63;93.49
48926;BME280;39838;59.938;30.642;2023-07-29T01:52:15;99482.75;;;11.62;93.66
48926;BME280;39838;59.938;30.642;2023-07-29T01:54:42;99477.59;;;11.60;93.86
48926;BME280;39838;59.938;30.642;2023-07-29T01:57:11;99482.75;;;11.62;93.93
48926;BME280;39838;59.938;30.642;2023-07-29T01:59:38;99477.63;;;11.59;94.13
48926;BME280;39838;59.938;30.642;2023-07-29T02:02:06;99481.94;;;11.58;94.13
48926;BME280;39838;59.938;30.642;2023-07-29T02:04:33;99481.09;;;11.59;93.87
48926;BME280;39838;59.938;30.642;2023-07-29T02:07:00;99475.88;;;11.59;94.26
48926;BME280;39838;59.938;30.642;2023-07-29T02:09:27;99475.84;;;11.61;94.03
48926;BME280;39838;59.938;30.642;2023-07-29T02:11:56;99474.00;;;11.66;93.86
48926;BME280;39838;59.938;30.642;2023-07-29T02:14:25;99485.16;;;11.71;93.68
48926;BME280;39838;59.938;30.642;2023-07-29T02:16:52;99482.44;;;11.77;93.37
48926;BME280;39838;59.938;30.642;2023-07-29T02:19:39;99485.00;;;11.80;93.06
48926;BME280;39838;59.938;30.642;2023-07-29T02:22:06;99490.09;;;11.86;92.99
48926;BME280;39838;59.938;30.642;2023-07-29T02:24:33;99486.53;;;11.90;92.83
48926;BME280;39838;59.938;30.642;2023-07-29T02:27:00;99487.38;;;11.92;92.81
48926;BME280;39838;59.938;30.642;2023-07-29T02:29:29;99480.41;;;11.93;92.62
48926;BME280;39838;59.938;30.642;2023-07-29T02:31:56;99487.28;;;11.95;92.65
48926;BME280;39838;59.938;30.642;2023-07-29T02:34:23;99488.94;;;11.98;92.71
48926;BME280;39838;59.938;30.642;2023-07-29T02:36:51;99488.09;;;11.99;92.87
48926;BME280;39838;59.938;30.642;2023-07-29T02:39:18;99481.94;;;12.01;92.70
48926;BME280;39838;59.938;30.642;2023-07-29T02:41:45;99484.47;;;12.06;92.69
48926;BME280;39838;59.938;30.642;2023-07-29T02:44:12;99486.94;;;12.11;92.37
48926;BME280;39838;59.938;30.642;2023-07-29T02:46:41;99496.31;;;12.18;91.93
48926;BME280;39838;59.938;30.642;2023-07-29T02:49:08;99496.19;;;12.24;91.77
48926;BME280;39838;59.938;30.642;2023-07-29T02:51:35;99490.94;;;12.27;91.64
48926;BME280;39838;59.938;30.642;2023-07-29T02:54:03;99492.50;;;12.33;91.37
48926;BME280;39838;59.938;30.642;2023-07-29T02:56:30;99502.03;;;12.35;91.18
48926;BME280;39838;59.938;30.642;2023-07-29T02:58:57;99503.69;;;12.38;91.08
48926;BME280;39838;59.938;30.642;2023-07-29T03:01:25;99503.69;;;12.38;91.19
48926;BME280;39838;59.938;30.642;2023-07-29T03:03:54;99512.34;;;12.40;91.01
48926;BME280;39838;59.938;30.642;2023-07-29T03:06:21;99512.22;;;12.44;90.96
48926;BME280;39838;59.938;30.642;2023-07-29T03:08:48;99513.88;;;12.48;90.75
48926;BME280;39838;59.938;30.642;2023-07-29T03:11:16;99518.09;;;12.52;90.48
48926;BME280;39838;59.938;30.642;2023-07-29T03:13:43;99519.75;;;12.56;90.50
48926;BME280;39838;59.938;30.642;2023-07-29T03:16:11;99522.22;;;12.63;90.33
48926;BME280;39838;59.938;30.642;2023-07-29T03:18:40;99522.97;;;12.66;89.81
48926;BME280;39838;59.938;30.642;2023-07-29T03:21:09;99522.94;;;12.69;89.89
48926;BME280;39838;59.938;30.642;2023-07-29T03:23:37;99524.69;;;12.69;89.71
48926;BME280;39838;59.938;30.642;2023-07-29T03:26:05;99523.88;;;12.67;89.56
48926;BME280;39838;59.938;30.642;2023-07-29T03:28:37;99524.69;;;12.69;89.74
48926;BME280;39838;59.938;30.642;2023-07-29T03:31:04;99522.94;;;12.69;89.70
48926;BME280;39838;59.938;30.642;2023-07-29T03:33:31;99520.31;;;12.69;89.59
48926;BME280;39838;59.938;30.642;2023-07-29T03:35:59;99517.63;;;12.74;89.78
48926;BME280;39838;59.938;30.642;2023-07-29T03:38:27;99514.09;;;12.75;89.53
48926;BME280;39838;59.938;30.642;2023-07-29T03:40:55;99515.81;;;12.76;89.62
48926;BME280;39838;59.938;30.642;2023-07-29T03:43:22;99514.81;;;12.80;89.70
48926;BME280;39838;59.938;30.642;2023-07-29T03:45:49;99512.06;;;12.86;89.72
48926;BME280;39838;59.938;30.642;2023-07-29T03:48:16;99514.56;;;12.91;89.81
48926;BME280;39838;59.938;30.642;2023-07-29T03:50:43;99523.09;;;12.97;89.17
48926;BME280;39838;59.938;30.642;2023-07-29T03:53:11;99520.38;;;13.02;89.19
48926;BME280;39838;59.938;30.642;2023-07-29T03:55:39;99529.81;;;13.07;88.99
48926;BME280;39838;59.938;30.642;2023-07-29T03:58:06;99516.78;;;13.07;88.90
48926;BME280;39838;59.938;30.642;2023-07-29T04:00:33;99522.78;;;13.09;88.81
48926;BME280;39838;59.938;30.642;2023-07-29T04:03:01;99519.38;;;13.07;88.63
48926;BME280;39838;59.938;30.642;2023-07-29T04:05:28;99527.91;;;13.14;88.66
48926;BME280;39838;59.938;30.642;2023-07-29T04:07:55;99526.06;;;13.18;88.65
48926;BME280;39838;59.938;30.642;2023-07-29T04:10:22;99519.03;;;13.20;88.71
48926;BME280;39838;59.938;30.642;2023-07-29T04:12:51;99521.53;;;13.26;88.58
48926;BME280;39838;59.938;30.642;2023-07-29T04:15:18;99529.13;;;13.33;88.29
48926;BME280;39838;59.938;30.642;2023-07-29T04:17:45;99532.38;;;13.43;88.40
48926;BME280;39838;59.938;30.642;2023-07-29T04:20:13;99530.41;;;13.51;87.89
48926;BME280;39838;59.938;30.642;2023-07-29T04:22:40;99530.25;;;13.57;87.80
48926;BME280;39838;59.938;30.642;2023-07-29T04:25:07;99535.19;;;13.66;87.34
48926;BME280;39838;59.938;30.642;2023-07-29T04:27:34;99533.22;;;13.75;87.58
48926;BME280;39838;59.938;30.642;2023-07-29T04:30:04;99531.28;;;13.83;87.45
48926;BME280;39838;59.938;30.642;2023-07-29T04:32:31;99530.09;;;13.93;86.73
48926;BME280;39838;59.938;30.642;2023-07-29T04:34:58;99535.13;;;13.99;86.53
48926;BME280;39838;59.938;30.642;2023-07-29T04:37:26;99533.25;;;14.04;86.66
48926;BME280;39838;59.938;30.642;2023-07-29T04:39:53;99529.63;;;14.08;86.45
48926;BME280;39838;59.938;30.642;2023-07-29T04:42:20;99537.34;;;14.13;86.00
48926;BME280;39838;59.938;30.642;2023-07-29T04:44:47;99533.59;;;14.21;85.87
48926;BME280;39838;59.938;30.642;2023-07-29T04:47:16;99535.84;;;14.34;85.55
48926;BME280;39838;59.938;30.642;2023-07-29T04:49:43;99534.06;;;14.34;84.99
48926;BME280;39838;59.938;30.642;2023-07-29T04:52:10;99543.50;;;14.40;85.01
48926;BME280;39838;59.938;30.642;2023-07-29T04:54:38;99535.59;;;14.41;85.01
48926;BME280;39838;59.938;30.642;2023-07-29T04:57:05;99536.44;;;14.43;84.81
48926;BME280;39838;59.938;30.642;2023-07-29T04:59:32;99533.69;;;14.48;84.29
48926;BME280;39838;59.938;30.642;2023-07-29T05:01:59;99538.66;;;14.56;84.11
48926;BME280;39838;59.938;30.642;2023-07-29T05:04:28;99535.91;;;14.60;83.78
48926;BME280;39838;59.938;30.642;2023-07-29T05:06:55;99533.91;;;14.68;83.67
48926;BME280;39838;59.938;30.642;2023-07-29T05:09:23;99529.28;;;14.77;83.28
48926;BME280;39838;59.938;30.642;2023-07-29T05:11:50;99511.88;;;14.77;82.87
48926;BME280;39838;59.938;30.642;2023-07-29T05:14:18;99539.16;;;14.95;82.82
48926;BME280;39838;59.938;30.642;2023-07-29T05:16:45;99538.09;;;15.00;82.44
48926;BME280;39838;59.938;30.642;2023-07-29T05:19:13;99541.25;;;15.10;82.50
48926;BME280;39838;59.938;30.642;2023-07-29T05:21:42;99541.03;;;15.16;82.11
48926;BME280;39838;59.938;30.642;2023-07-29T05:24:09;99539.97;;;15.22;81.51
48926;BME280;39838;59.938;30.642;2023-07-29T05:26:36;99537.22;;;15.26;81.23
48926;BME280;39838;59.938;30.642;2023-07-29T05:29:03;99542.38;;;15.28;81.02
48926;BME280;39838;59.938;30.642;2023-07-29T05:31:30;99534.47;;;15.29;80.71
48926;BME280;39838;59.938;30.642;2023-07-29T05:33:58;99525.69;;;15.32;80.35
48926;BME280;39838;59.938;30.642;2023-07-29T05:36:25;99534.06;;;15.42;80.47
48926;BME280;39838;59.938;30.642;2023-07-29T05:38:53;99537.16;;;15.53;80.16
48926;BME280;39838;59.938;30.642;2023-07-29T05:41:21;99528.94;;;15.64;79.99
48926;BME280;39838;59.938;30.642;2023-07-29T05:43:48;99525.09;;;15.74;79.38
48926;BME280;39838;59.938;30.642;2023-07-29T05:46:15;99531.88;;;15.79;78.98
48926;BME280;39838;59.938;30.642;2023-07-29T05:48:42;99530.91;;;15.82;78.18
48926;BME280;39838;59.938;30.642;2023-07-29T05:51:09;99537.97;;;15.80;78.07
48926;BME280;39838;59.938;30.642;2023-07-29T05:53:37;99537.69;;;15.88;78.22
48926;BME280;39838;59.938;30.642;2023-07-29T05:56:05;99536.41;;;15.98;78.03
48926;BME280;39838;59.938;30.642;2023-07-29T05:58:32;99531.50;;;16.12;78.29
48926;BME280;39838;59.938;30.642;2023-07-29T06:01:00;99525.00;;;16.22;77.67
48926;BME280;39838;59.938;30.642;2023-07-29T06:03:27;99529.97;;;16.30;77.38
48926;BME280;39838;59.938;30.642;2023-07-29T06:05:54;99522.59;;;16.40;77.04
48926;BME280;39838;59.938;30.642;2023-07-29T06:08:21;99514.38;;;16.49;76.92
48926;BME280;39838;59.938;30.642;2023-07-29T06:10:48;99519.00;;;16.64;76.59
48926;BME280;39838;59.938;30.642;2023-07-29T06:13:17;99517.28;;;16.85;76.10
48926;BME280;39838;59.938;30.642;2023-07-29T06:15:44;99506.13;;;17.02;75.75
48926;BME280;39838;59.938;30.642;2023-07-29T06:18:11;99509.25;;;17.10;74.67
48926;BME280;39838;59.938;30.642;2023-07-29T06:20:39;99506.22;;;17.19;74.05
48926;BME280;39838;59.938;30.642;2023-07-29T06:23:06;99508.47;;;17.28;73.78
48926;BME280;39838;59.938;30.642;2023-07-29T06:25:33;99510.56;;;17.40;73.51
48926;BME280;39838;59.938;30.642;2023-07-29T06:28:01;99505.56;;;17.55;73.17
48926;BME280;39838;59.938;30.642;2023-07-29T06:30:29;99496.16;;;17.69;72.61
48926;BME280;39838;59.938;30.642;2023-07-29T06:32:56;99502.78;;;17.78;71.51
48926;BME280;39838;59.938;30.642;2023-07-29T06:35:24;99501.75;;;17.82;69.88
48926;BME280;39838;59.938;30.642;2023-07-29T06:37:51;99501.75;;;17.82;69.49
48926;BME280;39838;59.938;30.642;2023-07-29T06:40:18;99501.78;;;17.81;69.62
48926;BME280;39838;59.938;30.642;2023-07-29T06:42:45;99490.44;;;17.80;69.71
48926;BME280;39838;59.938;30.642;2023-07-29T06:45:13;99500.94;;;17.80;69.53
48926;BME280;39838;59.938;30.642;2023-07-29T06:47:42;99506.06;;;17.83;69.03
48926;BME280;39838;59.938;30.642;2023-07-29T06:50:10;99503.38;;;17.85;68.20
48926;BME280;39838;59.938;30.642;2023-07-29T06:52:37;99509.97;;;17.93;68.05
48926;BME280;39838;59.938;30.642;2023-07-29T06:55:06;99506.00;;;18.04;67.50
48926;BME280;39838;59.938;30.642;2023-07-29T06:57:33;99504.63;;;18.14;66.97
48926;BME280;39838;59.938;30.642;2023-07-29T07:00:01;99509.31;;;18.26;67.29
48926;BME280;39838;59.938;30.642;2023-07-29T07:02:32;99498.59;;;18.31;66.32
48926;BME280;39838;59.938;30.642;2023-07-29T07:05:01;99494.75;;;18.38;66.06
48926;BME280;39838;59.938;30.642;2023-07-29T07:07:29;99491.88;;;18.42;66.49
48926;BME280;39838;59.938;30.642;2023-07-29T07:09:57;99491.03;;;18.42;65.73
48926;BME280;39838;59.938;30.642;2023-07-29T07:12:24;99487.63;;;18.40;65.82
48926;BME280;39838;59.938;30.642;2023-07-29T07:14:51;99483.94;;;18.44;65.82
48926;BME280;39838;59.938;30.642;2023-07-29T07:17:18;99483.66;;;18.50;65.62
48926;BME280;39838;59.938;30.642;2023-07-29T07:19:45;99485.34;;;18.51;65.15
48926;BME280;39838;59.938;30.642;2023-07-29T07:22:14;99476.63;;;18.50;65.05
48926;BME280;39838;59.938;30.642;2023-07-29T07:24:41;99482.34;;;18.59;65.12
48926;BME280;39838;59.938;30.642;2023-07-29T07:27:09;99486.31;;;18.67;64.92
48926;BME280;39838;59.938;30.642;2023-07-29T07:29:36;99485.81;;;18.78;64.66
48926;BME280;39838;59.938;30.642;2023-07-29T07:32:03;99477.63;;;18.84;63.65
48926;BME280;39838;59.938;30.642;2023-07-29T07:34:30;99479.56;;;18.98;63.84
48926;BME280;39838;59.938;30.642;2023-07-29T07:36:59;99485.28;;;19.06;63.84
48926;BME280;39838;59.938;30.642;2023-07-29T07:39:27;99477.69;;;19.17;63.11
48926;BME280;39838;59.938;30.642;2023-07-29T07:41:54;99477.56;;;19.36;62.89
48926;BME280;39838;59.938;30.642;2023-07-29T07:44:22;99478.09;;;19.43;62.38
48926;BME280;39838;59.938;30.642;2023-07-29T07:46:52;99474.47;;;19.45;62.17
48926;BME280;39838;59.938;30.642;2023-07-29T07:49:19;99465.44;;;19.49;61.53
48926;BME280;39838;59.938;30.642;2023-07-29T07:51:46;99467.66;;;19.57;61.32
48926;BME280;39838;59.938;30.642;2023-07-29T07:54:13;99471.66;;;19.66;60.86
48926;BME280;39838;59.938;30.642;2023-07-29T07:56:42;99463.66;;;19.83;60.33
48926;BME280;39838;59.938;30.642;2023-07-29T07:59:10;99472.03;;;20.07;59.52
48926;BME280;39838;59.938;30.642;2023-07-29T08:01:38;99470.75;;;20.30;58.98
48926;BME280;39838;59.938;30.642;2023-07-29T08:04:06;99465.81;;;20.55;58.26
48926;BME280;39838;59.938;30.642;2023-07-29T08:06:33;99468.84;;;20.63;57.34
48926;BME280;39838;59.938;30.642;2023-07-29T08:09:01;99468.91;;;20.78;56.83
48926;BME280;39838;59.938;30.642;2023-07-29T08:11:28;99470.59;;;20.79;56.23
48926;BME280;39838;59.938;30.642;2023-07-29T08:13:58;99465.06;;;20.83;55.90
48926;BME280;39838;59.938;30.642;2023-07-29T08:16:25;99453.66;;;20.83;56.16
48926;BME280;39838;59.938;30.642;2023-07-29T08:18:53;99461.19;;;20.75;55.84
48926;BME280;39838;59.938;30.642;2023-07-29T08:21:20;99459.13;;;20.80;55.94
48926;BME280;39838;59.938;30.642;2023-07-29T08:23:47;99458.56;;;20.89;55.60
48926;BME280;39838;59.938;30.642;2023-07-29T08:26:14;99459.22;;;20.92;55.48
48926;BME280;39838;59.938;30.642;2023-07-29T08:28:42;99458.13;;;20.96;55.40
48926;BME280;39838;59.938;30.642;2023-07-29T08:31:11;99447.00;;;21.06;55.38
48926;BME280;39838;59.938;30.642;2023-07-29T08:33:38;99454.94;;;21.06;54.93
48926;BME280;39838;59.938;30.642;2023-07-29T08:36:05;99456.66;;;21.07;55.09
48926;BME280;39838;59.938;30.642;2023-07-29T08:38:32;99459.31;;;21.21;55.22
48926;BME280;39838;59.938;30.642;2023-07-29T08:41:06;99450.25;;;21.25;54.92
48926;BME280;39838;59.938;30.642;2023-07-29T08:43:38;99456.72;;;21.35;54.73
48926;BME280;39838;59.938;30.642;2023-07-29T08:46:06;99455.19;;;21.45;54.52
48926;BME280;39838;59.938;30.642;2023-07-29T08:48:39;99453.22;;;21.49;54.19
48926;BME280;39838;59.938;30.642;2023-07-29T08:51:08;99455.38;;;21.57;54.34
48926;BME280;39838;59.938;30.642;2023-07-29T08:53:35;99452.66;;;21.58;53.98
48926;BME280;39838;59.938;30.642;2023-07-29T08:56:03;99455.50;;;21.41;53.63
48926;BME280;39838;59.938;30.642;2023-07-29T08:58:31;99449.25;;;21.42;54.24
48926;BME280;39838;59.938;30.642;2023-07-29T09:00:59;99447.63;;;21.39;53.84
48926;BME280;39838;59.938;30.642;2023-07-29T09:03:27;99429.84;;;21.13;53.80
48926;BME280;39838;59.938;30.642;2023-07-29T09:05:56;99446.94;;;21.07;54.27
48926;BME280;39838;59.938;30.642;2023-07-29T09:08:25;99445.22;;;21.06;54.45
48926;BME280;39838;59.938;30.642;2023-07-29T09:10:53;99455.69;;;20.93;54.69
48926;BME280;39838;59.938;30.642;2023-07-29T09:13:21;99450.06;;;20.84;54.80
48926;BME280;39838;59.938;30.642;2023-07-29T09:15:48;99457.59;;;20.76;54.67
48926;BME280;39838;59.938;30.642;2023-07-29T09:18:16;99452.97;;;20.79;54.70
48926;BME280;39838;59.938;30.642;2023-07-29T09:20:43;99452.91;;;20.81;54.99
48926;BME280;39838;59.938;30.642;2023-07-29T09:23:14;99447.69;;;20.79;54.58
48926;BME280;39838;59.938;30.642;2023-07-29T09:25:42;99441.50;;;20.80;54.60
48926;BME280;39838;59.938;30.642;2023-07-29T09:28:10;99436.78;;;20.85;54.39
48926;BME280;39838;59.938;30.642;2023-07-29T09:30:38;99440.09;;;20.89;54.19
48926;BME280;39838;59.938;30.642;2023-07-29T09:33:06;99441.78;;;20.90;53.96
48926;BME280;39838;59.938;30.642;2023-07-29T09:35:35;99452.72;;;20.84;53.54
48926;BME280;39838;59.938;30.642;2023-07-29T09:38:04;99433.84;;;20.76;53.19
48926;BME280;39838;59.938;30.642;2023-07-29T09:40:37;99451.22;;;20.80;53.26
48926;BME280;39838;59.938;30.642;2023-07-29T09:43:05;99455.78;;;21.06;53.42
48926;BME280;39838;59.938;30.642;2023-07-29T09:45:35;99459.84;;;21.42;52.65
48926;BME280;39838;59.938;30.642;2023-07-29T09:48:03;99451.03;;;21.70;51.77
48926;BME280;39838;59.938;30.642;2023-07-29T09:50:35;99461.00;;;21.93;50.91
48926;BME280;39838;59.938;30.642;2023-07-29T09:53:03;99454.31;;;22.16;50.54
48926;BME280;39838;59.938;30.642;2023-07-29T09:55:33;99433.88;;;22.18;49.86
48926;BME280;39838;59.938;30.642;2023-07-29T09:58:02;99454.22;;;22.45;50.07
48926;BME280;39838;59.938;30.642;2023-07-29T10:00:32;99458.88;;;22.54;49.82
48926;BME280;39838;59.938;30.642;2023-07-29T10:03:00;99462.31;;;22.56;49.25
48926;BME280;39838;59.938;30.642;2023-07-29T10:05:28;99466.09;;;22.52;49.34
48926;BME280;39838;59.938;30.642;2023-07-29T10:07:56;99465.41;;;22.63;48.77
48926;BME280;39838;59.938;30.642;2023-07-29T10:10:24;99449.59;;;22.61;48.59
48926;BME280;39838;59.938;30.642;2023-07-29T10:12:53;99456.28;;;22.67;49.33
48926;BME280;39838;59.938;30.642;2023-07-29T10:15:23;99467.38;;;22.59;49.22
48926;BME280;39838;59.938;30.642;2023-07-29T10:17:51;99454.94;;;22.47;49.12
48926;BME280;39838;59.938;30.642;2023-07-29T10:20:19;99470.28;;;22.42;49.73
48926;BME280;39838;59.938;30.642;2023-07-29T10:22:47;99468.41;;;22.44;49.45
48926;BME280;39838;59.938;30.642;2023-07-29T10:25:17;99460.41;;;22.58;49.65
48926;BME280;39838;59.938;30.642;2023-07-29T10:27:48;99467.63;;;22.69;49.53
48926;BME280;39838;59.938;30.642;2023-07-29T10:30:16;99480.38;;;22.76;49.23
48926;BME280;39838;59.938;30.642;2023-07-29T10:32:45;99466.69;;;22.97;48.83
48926;BME280;39838;59.938;30.642;2023-07-29T10:35:12;99466.91;;;23.19;48.48
48926;BME280;39838;59.938;30.642;2023-07-29T10:37:40;99462.66;;;23.29;48.24
48926;BME280;39838;59.938;30.642;2023-07-29T10:40:09;99460.00;;;23.29;48.10
48926;BME280;39838;59.938;30.642;2023-07-29T10:42:38;99462.22;;;23.35;47.83
48926;BME280;39838;59.938;30.642;2023-07-29T10:45:18;99449.94;;;23.34;48.01
48926;BME280;39838;59.938;30.642;2023-07-29T10:47:48;99446.97;;;23.39;47.59
48926;BME280;39838;59.938;30.642;2023-07-29T10:50:19;99445.28;;;23.12;47.57
48926;BME280;39838;59.938;30.642;2023-07-29T10:52:51;99460.34;;;23.12;48.02
48926;BME280;39838;59.938;30.642;2023-07-29T10:55:27;99458.63;;;23.11;47.68
48926;BME280;39838;59.938;30.642;2023-07-29T10:58:14;99448.88;;;23.11;47.75
48926;BME280;39838;59.938;30.642;2023-07-29T11:00:43;99442.19;;;23.06;47.78
48926;BME280;39838;59.938;30.642;2023-07-29T11:03:13;99454.56;;;22.93;47.84
48926;BME280;39838;59.938;30.642;2023-07-29T11:05:49;99453.19;;;22.87;47.47
48926;BME280;39838;59.938;30.642;2023-07-29T11:08:18;99456.56;;;22.89;47.59
48926;BME280;39838;59.938;30.642;2023-07-29T11:10:57;99457.34;;;22.91;48.03
48926;BME280;39838;59.938;30.642;2023-07-29T11:13:26;99458.22;;;23.17;47.71
48926;BME280;39838;59.938;30.642;2023-07-29T11:15:55;99446.75;;;23.29;46.37
48926;BME280;39838;59.938;30.642;2023-07-29T11:18:28;99444.66;;;23.34;46.14
48926;BME280;39838;59.938;30.642;2023-07-29T11:20:56;99450.38;;;23.28;46.20
48926;BME280;39838;59.938;30.642;2023-07-29T11:23:34;99454.38;;;23.21;46.54
48926;BME280;39838;59.938;30.642;2023-07-29T11:26:02;99435.22;;;23.18;45.58
48926;BME280;39838;59.938;30.642;2023-07-29T11:28:30;99448.88;;;22.99;45.96
48926;BME280;39838;59.938;30.642;2023-07-29T11:30:57;99447.47;;;22.93;46.79
48926;BME280;39838;59.938;30.642;2023-07-29T11:33:27;99432.28;;;22.82;45.54
48926;BME280;39838;59.938;30.642;2023-07-29T11:35:55;99437.13;;;22.63;46.13
48926;BME280;39838;59.938;30.642;2023-07-29T11:38:22;99437.00;;;22.65;46.21
48926;BME280;39838;59.938;30.642;2023-07-29T11:40:58;99433.53;;;22.64;46.07
48926;BME280;39838;59.938;30.642;2023-07-29T11:43:25;99431.63;;;22.66;45.70
48926;BME280;39838;59.938;30.642;2023-07-29T11:45:53;99432.91;;;22.73;45.45
48926;BME280;39838;59.938;30.642;2023-07-29T11:48:31;99428.66;;;22.71;45.91
48926;BME280;39838;59.938;30.642;2023-07-29T11:50:58;99425.69;;;22.75;45.28
48926;BME280;39838;59.938;30.642;2023-07-29T11:53:27;99424.22;;;22.71;46.08
48926;BME280;39838;59.938;30.642;2023-07-29T11:55:55;99428.00;;;22.67;45.91
48926;BME280;39838;59.938;30.642;2023-07-29T11:58:23;99425.91;;;22.72;46.18
48926;BME280;39838;59.938;30.642;2023-07-29T12:00:51;99423.41;;;22.83;45.97
48926;BME280;39838;59.938;30.642;2023-07-29T12:03:19;99428.53;;;22.99;45.15
48926;BME280;39838;59.938;30.642;2023-07-29T12:05:48;99433.31;;;23.07;44.23
48926;BME280;39838;59.938;30.642;2023-07-29T12:08:15;99427.34;;;23.16;44.32
48926;BME280;39838;59.938;30.642;2023-07-29T12:10:43;99431.72;;;23.17;43.90
48926;BME280;39838;59.938;30.642;2023-07-29T12:13:10;99433.00;;;23.11;43.38
48926;BME280;39838;59.938;30.642;2023-07-29T12:15:38;99438.81;;;23.04;44.36
48926;BME280;39838;59.938;30.642;2023-07-29T12:18:06;99436.06;;;23.18;45.05
48926;BME280;39838;59.938;30.642;2023-07-29T12:20:33;99431.94;;;23.39;45.28
48926;BME280;39838;59.938;30.642;2023-07-29T12:23:02;99427.56;;;23.64;45.00
48926;BME280;39838;59.938;30.642;2023-07-29T12:25:31;99427.38;;;24.04;44.79
48926;BME280;39838;59.938;30.642;2023-07-29T12:28:03;99428.16;;;24.54;43.86
48926;BME280;39838;59.938;30.642;2023-07-29T12:30:30;99422.53;;;25.04;43.02
48926;BME280;39838;59.938;30.642;2023-07-29T12:32:57;99434.56;;;25.55;42.02
48926;BME280;39838;59.938;30.642;2023-07-29T12:35:34;99434.78;;;25.97;41.29
48926;BME280;39838;59.938;30.642;2023-07-29T12:38:03;99437.19;;;26.11;40.98
48926;BME280;39838;59.938;30.642;2023-07-29T12:40:30;99426.13;;;26.27;40.40
48926;BME280;39838;59.938;30.642;2023-07-29T12:42:57;99429.47;;;26.51;39.84
48926;BME280;39838;59.938;30.642;2023-07-29T12:45:25;99439.81;;;26.65;39.57
48926;BME280;39838;59.938;30.642;2023-07-29T12:47:54;99439.09;;;26.63;38.63
48926;BME280;39838;59.938;30.642;2023-07-29T12:50:21;99419.88;;;27.02;38.61
48926;BME280;39838;59.938;30.642;2023-07-29T12:52:48;99431.75;;;27.39;38.49
48926;BME280;39838;59.938;30.642;2023-07-29T12:55:17;99429.34;;;27.57;38.29